^^
Meteo Knjazevac Station Historical Data
Daily Summary for April 3, 2021 Units:  English    Metric   Both
Daily Weekly Monthly Yearly Custom
  High: Low: Average:
Temperature: 71.6 °F 63 °F 67 °F
Dew Point: 64.7 °F 59.7 °F 62.2 °F
Humidity: 90% 79% 85%
Wind Speed: 2mph 0mph 0.7mph
Wind Gust: 4mph - -
Wind- - SW
Pressure: 30.09 in 30.05 in -
Precipitation: 0.00 in    
Historical Graphs
 
 
Tabular Data for April 3, 2021
Time Temperature Dew Point Pressure Wind Wind Speed Wind Gust Humidity Rainfall Rate (Hourly) solar Conditions
00:00 71.6 °F 64.7 °F 30.05 in SW 2 mph 3 mph 79% 0.00 in 0 W/m2
00:10 71.4 °F 64.6 °F 30.05 in SSW 1 mph 3 mph 79% 0.00 in 0 W/m2
00:20 71.1 °F 64.2 °F 30.05 in WSW 1 mph 2 mph 79% 0.00 in 0 W/m2
00:30 70.9 °F 64 °F 30.05 in Calm   2 mph 79% 0.00 in 0 W/m2
00:40 70.5 °F 64 °F 30.05 in South 2 mph 3 mph 80% 0.00 in 0 W/m2
00:50 70.1 °F 63.6 °F 30.05 in SSE 1 mph 4 mph 80% 0.00 in 0 W/m2
01:00 69.6 °F 63.5 °F 30.05 in SE 1 mph 3 mph 81% 0.00 in 0 W/m2
01:10 69.4 °F 63.4 °F 30.05 in SSE 1 mph 3 mph 81% 0.00 in 0 W/m2
01:20 69.1 °F 63 °F 30.05 in Calm   2 mph 81% 0.00 in 0 W/m2
01:30 68.9 °F 62.8 °F 30.05 in South 1 mph 4 mph 81% 0.00 in 0 W/m2
01:40 68.7 °F 62.7 °F 30.05 in ESE 2 mph 3 mph 81% 0.00 in 0 W/m2
01:50 68.4 °F 63 °F 30.05 in SSE 1 mph 4 mph 83% 0.00 in 0 W/m2
02:00 68.2 °F 62.8 °F 30.06 in Calm   3 mph 83% 0.00 in 0 W/m2
02:10 68 °F 63 °F 30.06 in WNW 1 mph 2 mph 84% 0.00 in 0 W/m2
02:20 67.8 °F 62.8 °F 30.06 in Calm   1 mph 84% 0.00 in 0 W/m2
02:30 67.6 °F 62.6 °F 30.06 in Calm   2 mph 84% 0.00 in 0 W/m2
02:40 67.5 °F 62.5 °F 30.06 in Calm   2 mph 84% 0.00 in 0 W/m2
02:50 67.1 °F 62.1 °F 30.06 in SE 1 mph 2 mph 84% 0.00 in 0 W/m2
03:00 66.9 °F 62.3 °F 30.06 in East 1 mph 3 mph 85% 0.00 in 0 W/m2
03:10 66.7 °F 62.1 °F 30.06 in WSW 1 mph 2 mph 85% 0.00 in 0 W/m2
03:20 66.2 °F 61.9 °F 30.06 in West 2 mph 3 mph 86% 0.00 in 0 W/m2
03:30 66 °F 61.7 °F 30.06 in WNW 1 mph 4 mph 86% 0.00 in 0 W/m2
03:40 65.6 °F 61.3 °F 30.07 in WSW 1 mph 3 mph 86% 0.00 in 0 W/m2
03:50 65.1 °F 61.5 °F 30.07 in Calm   2 mph 88% 0.00 in 0 W/m2
04:00 64.8 °F 61.1 °F 30.07 in Calm   1 mph 88% 0.00 in 0 W/m2
04:10 64.8 °F 61.2 °F 30.06 in Calm   2 mph 88% 0.00 in 0 W/m2
04:20 64.8 °F 61.1 °F 30.06 in Calm   2 mph 88% 0.00 in 0 W/m2
04:30 64.6 °F 61.3 °F 30.07 in Calm   2 mph 89% 0.00 in 0 W/m2
04:40 64.4 °F 60.8 °F 30.07 in Calm   2 mph 88% 0.00 in 0 W/m2
04:50 64.2 °F 60.9 °F 30.08 in Calm   2 mph 89% 0.00 in 0 W/m2
05:00 64.2 °F 60.9 °F 30.08 in NW 1 mph 2 mph 89% 0.00 in 0 W/m2
05:10 64 °F 60.7 °F 30.08 in Calm   2 mph 89% 0.00 in 0 W/m2
05:20 63.7 °F 60.4 °F 30.08 in Calm   2 mph 89% 0.00 in 0 W/m2
05:30 63.4 °F 60.1 °F 30.08 in West 2 mph 3 mph 89% 0.00 in 7 W/m2
05:40 63 °F 59.7 °F 30.09 in Calm   2 mph 89% 0.00 in 14 W/m2
05:50 63 °F 60 °F 30.09 in NNW 1 mph 2 mph 90% 0.00 in 23 W/m2
Knjazevac, Serbia
Compliments of Weather Underground - 2 mb